sensor_id;sensor_type;location;lat;lon;timestamp;pressure;altitude;pressure_sealevel;temperature;humidity
49377;BME280;35253;34.688;33.040;2023-02-13T00:02:21;101900.88;;;10.05;100.00
49377;BME280;35253;34.688;33.040;2023-02-13T00:04:46;101891.66;;;9.90;100.00
49377;BME280;35253;34.688;33.040;2023-02-13T00:07:12;101894.38;;;9.88;100.00
49377;BME280;35253;34.688;33.040;2023-02-13T00:09:37;101894.50;;;9.85;100.00
49377;BME280;35253;34.688;33.040;2023-02-13T00:12:03;101900.63;;;9.87;100.00
49377;BME280;35253;34.688;33.040;2023-02-13T00:14:29;101891.25;;;9.77;100.00
49377;BME280;35253;34.688;33.040;2023-02-13T00:16:54;101897.19;;;9.84;100.00
49377;BME280;35253;34.688;33.040;2023-02-13T00:19:20;101887.25;;;9.89;100.00
49377;BME280;35253;34.688;33.040;2023-02-13T00:21:45;101891.41;;;9.96;100.00
49377;BME280;35253;34.688;33.040;2023-02-13T00:24:11;101890.44;;;9.99;100.00
49377;BME280;35253;34.688;33.040;2023-02-13T00:26:36;101891.66;;;9.90;100.00
49377;BME280;35253;34.688;33.040;2023-02-13T00:29:04;101893.16;;;9.97;100.00
49377;BME280;35253;34.688;33.040;2023-02-13T00:31:29;101889.78;;;9.92;100.00
49377;BME280;35253;34.688;33.040;2023-02-13T00:33:55;101888.50;;;9.79;100.00
49377;BME280;35253;34.688;33.040;2023-02-13T00:36:21;101886.16;;;9.70;100.00
49377;BME280;35253;34.688;33.040;2023-02-13T00:38:46;101885.16;;;9.74;100.00
49377;BME280;35253;34.688;33.040;2023-02-13T00:41:12;101897.19;;;9.61;100.00
49377;BME280;35253;34.688;33.040;2023-02-13T00:43:38;101900.00;;;9.56;100.00
49377;BME280;35253;34.688;33.040;2023-02-13T00:46:04;101891.03;;;9.59;100.00
49377;BME280;35253;34.688;33.040;2023-02-13T00:48:31;101896.34;;;9.59;100.00
49377;BME280;35253;34.688;33.040;2023-02-13T00:50:56;101889.28;;;9.58;100.00
49377;BME280;35253;34.688;33.040;2023-02-13T00:53:23;101895.03;;;9.45;100.00
49377;BME280;35253;34.688;33.040;2023-02-13T00:55:48;101895.38;;;9.36;100.00
49377;BME280;35253;34.688;33.040;2023-02-13T00:58:14;101899.47;;;9.46;100.00
49377;BME280;35253;34.688;33.040;2023-02-13T01:00:40;101893.97;;;9.51;100.00
49377;BME280;35253;34.688;33.040;2023-02-13T01:03:06;101892.84;;;9.57;100.00
49377;BME280;35253;34.688;33.040;2023-02-13T01:05:31;101893.72;;;9.57;100.00
49377;BME280;35253;34.688;33.040;2023-02-13T01:07:57;101899.72;;;9.64;100.00
49377;BME280;35253;34.688;33.040;2023-02-13T01:10:23;101898.09;;;9.60;100.00
49377;BME280;35253;34.688;33.040;2023-02-13T01:12:48;101892.53;;;9.66;100.00
49377;BME280;35253;34.688;33.040;2023-02-13T01:15:14;101897.78;;;9.69;100.00
49377;BME280;35253;34.688;33.040;2023-02-13T01:17:39;101908.50;;;9.66;100.00
49377;BME280;35253;34.688;33.040;2023-02-13T01:20:08;101900.63;;;9.63;100.00
49377;BME280;35253;34.688;33.040;2023-02-13T01:22:34;101897.50;;;9.52;100.00
49377;BME280;35253;34.688;33.040;2023-02-13T01:24:59;101901.78;;;9.56;100.00
49377;BME280;35253;34.688;33.040;2023-02-13T01:27:26;101892.19;;;9.75;100.00
49377;BME280;35253;34.688;33.040;2023-02-13T01:29:51;101900.69;;;9.61;100.00
49377;BME280;35253;34.688;33.040;2023-02-13T01:32:17;101897.97;;;9.63;100.00
49377;BME280;35253;34.688;33.040;2023-02-13T01:34:42;101891.34;;;9.49;100.00
49377;BME280;35253;34.688;33.040;2023-02-13T01:37:08;101896.03;;;9.43;100.00
49377;BME280;35253;34.688;33.040;2023-02-13T01:39:33;101899.72;;;9.39;100.00
49377;BME280;35253;34.688;33.040;2023-02-13T01:41:59;101896.47;;;9.56;100.00
49377;BME280;35253;34.688;33.040;2023-02-13T01:44:44;101902.13;;;9.46;100.00
49377;BME280;35253;34.688;33.040;2023-02-13T01:47:11;101902.31;;;9.40;100.00
49377;BME280;35253;34.688;33.040;2023-02-13T01:49:37;101903.66;;;9.27;100.00
49377;BME280;35253;34.688;33.040;2023-02-13T01:52:03;101903.75;;;9.26;100.00
49377;BME280;35253;34.688;33.040;2023-02-13T01:54:30;101897.69;;;9.21;100.00
49377;BME280;35253;34.688;33.040;2023-02-13T01:57:02;101899.94;;;9.33;100.00
49377;BME280;35253;34.688;33.040;2023-02-13T01:59:33;101900.25;;;9.24;100.00
49377;BME280;35253;34.688;33.040;2023-02-13T02:02:02;101896.59;;;9.26;100.00
49377;BME280;35253;34.688;33.040;2023-02-13T02:04:28;101888.28;;;9.35;100.00
49377;BME280;35253;34.688;33.040;2023-02-13T02:07:20;101897.44;;;9.28;100.00
49377;BME280;35253;34.688;33.040;2023-02-13T02:09:43;101901.56;;;9.37;100.00
49377;BME280;35253;34.688;33.040;2023-02-13T02:14:41;101902.63;;;9.31;100.00
49377;BME280;35253;34.688;33.040;2023-02-13T02:17:07;101908.66;;;9.36;100.00
49377;BME280;35253;34.688;33.040;2023-02-13T02:19:51;101904.41;;;9.31;100.00
49377;BME280;35253;34.688;33.040;2023-02-13T02:25:15;101902.63;;;9.31;100.00
49377;BME280;35253;34.688;33.040;2023-02-13T02:36:21;101909.91;;;9.26;100.00
49377;BME280;35253;34.688;33.040;2023-02-13T02:38:56;101910.00;;;9.23;100.00
49377;BME280;35253;34.688;33.040;2023-02-13T02:46:51;101910.22;;;9.17;100.00
49377;BME280;35253;34.688;33.040;2023-02-13T02:49:40;101919.13;;;9.16;100.00
49377;BME280;35253;34.688;33.040;2023-02-13T02:52:40;101913.69;;;9.19;100.00
49377;BME280;35253;34.688;33.040;2023-02-13T02:57:40;101921.94;;;9.12;100.00
49377;BME280;35253;34.688;33.040;2023-02-13T03:00:26;101927.34;;;9.09;100.00
49377;BME280;35253;34.688;33.040;2023-02-13T03:03:14;101929.84;;;9.13;100.00
49377;BME280;35253;34.688;33.040;2023-02-13T03:06:00;101931.59;;;9.14;100.00
49377;BME280;35253;34.688;33.040;2023-02-13T03:08:40;101936.13;;;9.12;100.00
49377;BME280;35253;34.688;33.040;2023-02-13T03:11:25;101938.56;;;9.18;100.00
49377;BME280;35253;34.688;33.040;2023-02-13T03:14:09;101936.16;;;9.11;100.00
49377;BME280;35253;34.688;33.040;2023-02-13T03:16:35;101935.00;;;9.19;100.00
49377;BME280;35253;34.688;33.040;2023-02-13T03:20:06;101936.94;;;9.14;100.00
49377;BME280;35253;34.688;33.040;2023-02-13T03:24:59;101946.19;;;9.29;100.00
49377;BME280;35253;34.688;33.040;2023-02-13T03:33:20;101945.44;;;9.25;100.00
49377;BME280;35253;34.688;33.040;2023-02-13T03:41:12;101951.53;;;9.29;100.00
49377;BME280;35253;34.688;33.040;2023-02-13T03:46:11;101953.19;;;9.05;100.00
49377;BME280;35253;34.688;33.040;2023-02-13T03:48:37;101954.94;;;9.06;100.00
49377;BME280;35253;34.688;33.040;2023-02-13T03:51:24;101956.56;;;9.10;100.00
49377;BME280;35253;34.688;33.040;2023-02-13T03:53:52;101956.56;;;9.10;100.00
49377;BME280;35253;34.688;33.040;2023-02-13T03:56:19;101956.53;;;9.12;100.00
49377;BME280;35253;34.688;33.040;2023-02-13T03:59:04;101960.84;;;9.16;100.00
49377;BME280;35253;34.688;33.040;2023-02-13T04:01:42;101961.72;;;9.16;100.00
49377;BME280;35253;34.688;33.040;2023-02-13T04:09:08;101961.78;;;9.13;100.00
49377;BME280;35253;34.688;33.040;2023-02-13T04:14:37;101964.38;;;9.16;100.00
49377;BME280;35253;34.688;33.040;2023-02-13T04:17:08;101962.22;;;9.27;100.00
49377;BME280;35253;34.688;33.040;2023-02-13T04:19:36;101972.44;;;9.13;100.00
49377;BME280;35253;34.688;33.040;2023-02-13T04:22:02;101962.59;;;9.17;100.00
49377;BME280;35253;34.688;33.040;2023-02-13T04:24:28;101967.66;;;9.24;100.00
49377;BME280;35253;34.688;33.040;2023-02-13T04:26:53;101964.38;;;9.16;100.00
49377;BME280;35253;34.688;33.040;2023-02-13T04:29:20;101970.41;;;9.21;100.00
49377;BME280;35253;34.688;33.040;2023-02-13T04:31:46;101971.09;;;9.26;100.00
49377;BME280;35253;34.688;33.040;2023-02-13T04:34:11;101972.97;;;9.24;100.00
49377;BME280;35253;34.688;33.040;2023-02-13T04:36:37;101971.22;;;9.23;100.00
49377;BME280;35253;34.688;33.040;2023-02-13T04:39:02;101977.06;;;9.34;100.00
49377;BME280;35253;34.688;33.040;2023-02-13T04:41:28;101979.88;;;9.30;100.00
49377;BME280;35253;34.688;33.040;2023-02-13T04:43:53;101982.59;;;9.28;100.00
49377;BME280;35253;34.688;33.040;2023-02-13T04:46:19;101985.25;;;9.28;100.00
49377;BME280;35253;34.688;33.040;2023-02-13T04:48:44;101987.50;;;9.40;100.00
49377;BME280;35253;34.688;33.040;2023-02-13T04:51:10;101987.38;;;9.43;100.00
49377;BME280;35253;34.688;33.040;2023-02-13T04:53:38;101986.78;;;9.35;100.00
49377;BME280;35253;34.688;33.040;2023-02-13T04:56:04;101987.38;;;9.43;100.00
49377;BME280;35253;34.688;33.040;2023-02-13T04:58:29;101985.84;;;9.36;100.00
49377;BME280;35253;34.688;33.040;2023-02-13T05:00:54;101992.81;;;9.40;100.00
49377;BME280;35253;34.688;33.040;2023-02-13T05:03:20;101987.31;;;9.46;100.00
49377;BME280;35253;34.688;33.040;2023-02-13T05:05:46;101990.88;;;9.45;100.00
49377;BME280;35253;34.688;33.040;2023-02-13T05:08:12;101992.81;;;9.40;100.00
49377;BME280;35253;34.688;33.040;2023-02-13T05:10:37;101987.59;;;9.64;100.00
49377;BME280;35253;34.688;33.040;2023-02-13T05:13:03;101985.38;;;9.52;100.00
49377;BME280;35253;34.688;33.040;2023-02-13T05:15:28;101989.28;;;9.66;100.00
49377;BME280;35253;34.688;33.040;2023-02-13T05:17:54;101991.13;;;9.64;100.00
49377;BME280;35253;34.688;33.040;2023-02-13T05:20:19;101998.84;;;9.72;100.00
49377;BME280;35253;34.688;33.040;2023-02-13T05:22:45;101995.28;;;9.73;100.00
49377;BME280;35253;34.688;33.040;2023-02-13T05:25:30;102002.22;;;9.77;100.00
49377;BME280;35253;34.688;33.040;2023-02-13T05:27:55;102001.69;;;9.92;100.00
49377;BME280;35253;34.688;33.040;2023-02-13T05:30:21;102006.91;;;9.95;100.00
49377;BME280;35253;34.688;33.040;2023-02-13T05:32:46;102009.13;;;10.07;100.00
49377;BME280;35253;34.688;33.040;2023-02-13T05:35:11;102014.44;;;10.09;100.00
49377;BME280;35253;34.688;33.040;2023-02-13T05:37:37;102011.38;;;10.19;100.00
49377;BME280;35253;34.688;33.040;2023-02-13T05:40:02;102024.59;;;10.22;100.00
49377;BME280;35253;34.688;33.040;2023-02-13T05:42:28;102016.72;;;10.19;100.00
49377;BME280;35253;34.688;33.040;2023-02-13T05:44:53;102017.25;;;10.29;100.00
49377;BME280;35253;34.688;33.040;2023-02-13T05:47:19;102016.06;;;10.37;100.00
49377;BME280;35253;34.688;33.040;2023-02-13T05:49:44;102022.13;;;10.41;100.00
49377;BME280;35253;34.688;33.040;2023-02-13T05:52:10;102029.97;;;10.46;100.00
49377;BME280;35253;34.688;33.040;2023-02-13T05:54:35;102026.16;;;10.53;100.00
49377;BME280;35253;34.688;33.040;2023-02-13T05:57:02;102031.50;;;10.53;100.00
49377;BME280;35253;34.688;33.040;2023-02-13T05:59:28;102032.66;;;10.69;100.00
49377;BME280;35253;34.688;33.040;2023-02-13T06:01:53;102028.72;;;10.79;100.00
49377;BME280;35253;34.688;33.040;2023-02-13T06:04:19;102028.09;;;10.94;100.00
49377;BME280;35253;34.688;33.040;2023-02-13T06:06:44;102029.22;;;11.10;100.00
49377;BME280;35253;34.688;33.040;2023-02-13T06:09:10;102018.44;;;11.13;100.00
49377;BME280;35253;34.688;33.040;2023-02-13T06:11:35;102033.22;;;11.22;100.00
49377;BME280;35253;34.688;33.040;2023-02-13T06:14:01;102030.38;;;11.26;100.00
49377;BME280;35253;34.688;33.040;2023-02-13T06:16:26;102034.66;;;11.30;100.00
49377;BME280;35253;34.688;33.040;2023-02-13T06:18:52;102027.19;;;11.39;100.00
49377;BME280;35253;34.688;33.040;2023-02-13T06:21:17;102034.97;;;11.45;100.00
49377;BME280;35253;34.688;33.040;2023-02-13T06:23:43;102022.84;;;11.58;100.00
49377;BME280;35253;34.688;33.040;2023-02-13T06:26:08;102024.88;;;11.73;100.00
49377;BME280;35253;34.688;33.040;2023-02-13T06:28:35;102019.28;;;11.79;100.00
49377;BME280;35253;34.688;33.040;2023-02-13T06:31:00;102023.63;;;11.82;100.00
49377;BME280;35253;34.688;33.040;2023-02-13T06:33:29;102017.00;;;11.90;100.00
49377;BME280;35253;34.688;33.040;2023-02-13T06:35:54;102018.41;;;11.99;100.00
49377;BME280;35253;34.688;33.040;2023-02-13T06:38:20;102024.50;;;12.02;100.00
49377;BME280;35253;34.688;33.040;2023-02-13T06:40:46;102021.41;;;12.11;100.00
49377;BME280;35253;34.688;33.040;2023-02-13T06:43:12;102019.31;;;12.19;100.00
49377;BME280;35253;34.688;33.040;2023-02-13T06:45:37;102029.56;;;12.29;100.00
49377;BME280;35253;34.688;33.040;2023-02-13T06:48:03;102021.22;;;12.36;100.00
49377;BME280;35253;34.688;33.040;2023-02-13T06:50:28;102026.41;;;12.39;99.06
49377;BME280;35253;34.688;33.040;2023-02-13T06:52:54;102027.81;;;12.48;96.58
49377;BME280;35253;34.688;33.040;2023-02-13T06:55:19;102021.31;;;12.53;96.38
49377;BME280;35253;34.688;33.040;2023-02-13T06:57:45;102027.31;;;12.58;95.68
49377;BME280;35253;34.688;33.040;2023-02-13T07:00:12;102028.09;;;12.60;94.48
49377;BME280;35253;34.688;33.040;2023-02-13T07:02:38;102026.16;;;12.64;93.12
49377;BME280;35253;34.688;33.040;2023-02-13T07:05:04;102018.88;;;12.68;92.26
49377;BME280;35253;34.688;33.040;2023-02-13T07:07:36;102022.13;;;12.74;90.44
49377;BME280;35253;34.688;33.040;2023-02-13T07:10:02;102026.16;;;12.83;89.48
49377;BME280;35253;34.688;33.040;2023-02-13T07:12:30;102022.41;;;12.87;87.54
49377;BME280;35253;34.688;33.040;2023-02-13T07:14:56;102030.22;;;12.91;86.79
49377;BME280;35253;34.688;33.040;2023-02-13T07:17:22;102034.06;;;13.04;85.92
49377;BME280;35253;34.688;33.040;2023-02-13T07:19:47;102029.63;;;13.03;83.85
49377;BME280;35253;34.688;33.040;2023-02-13T07:22:13;102036.88;;;13.01;82.75
49377;BME280;35253;34.688;33.040;2023-02-13T07:24:38;102035.78;;;13.05;81.80
49377;BME280;35253;34.688;33.040;2023-02-13T07:27:04;102032.97;;;13.08;83.36
49377;BME280;35253;34.688;33.040;2023-02-13T07:29:29;102026.47;;;13.14;83.22
49377;BME280;35253;34.688;33.040;2023-02-13T07:31:55;102032.28;;;13.24;84.04
49377;BME280;35253;34.688;33.040;2023-02-13T07:34:21;102039.84;;;13.33;82.77
49377;BME280;35253;34.688;33.040;2023-02-13T07:36:46;102044.91;;;13.39;82.02
49377;BME280;35253;34.688;33.040;2023-02-13T07:39:11;102034.72;;;13.28;82.64
49377;BME280;35253;34.688;33.040;2023-02-13T07:41:37;102042.38;;;13.36;81.96
49377;BME280;35253;34.688;33.040;2023-02-13T07:44:02;102041.94;;;13.45;80.92
49377;BME280;35253;34.688;33.040;2023-02-13T07:46:28;102042.56;;;13.50;82.13
49377;BME280;35253;34.688;33.040;2023-02-13T07:48:53;102040.78;;;13.50;82.21
49377;BME280;35253;34.688;33.040;2023-02-13T07:51:19;102038.44;;;13.43;79.41
49377;BME280;35253;34.688;33.040;2023-02-13T07:53:44;102043.34;;;13.52;80.13
49377;BME280;35253;34.688;33.040;2023-02-13T07:56:10;102049.44;;;13.56;80.28
49377;BME280;35253;34.688;33.040;2023-02-13T07:58:36;102043.59;;;13.65;81.39
49377;BME280;35253;34.688;33.040;2023-02-13T08:01:09;102042.19;;;13.58;83.65
49377;BME280;35253;34.688;33.040;2023-02-13T08:03:35;102047.72;;;13.72;84.42
49377;BME280;35253;34.688;33.040;2023-02-13T08:06:00;102047.03;;;13.68;86.60
49377;BME280;35253;34.688;33.040;2023-02-13T08:08:26;102049.84;;;13.82;86.51
49377;BME280;35253;34.688;33.040;2023-02-13T08:10:51;102051.59;;;13.83;85.86
49377;BME280;35253;34.688;33.040;2023-02-13T08:13:35;102043.56;;;13.83;85.63
49377;BME280;35253;34.688;33.040;2023-02-13T08:16:01;102041.97;;;13.79;86.73
49377;BME280;35253;34.688;33.040;2023-02-13T08:18:27;102041.19;;;13.94;87.10
49377;BME280;35253;34.688;33.040;2023-02-13T08:20:52;102036.31;;;14.03;87.19
49377;BME280;35253;34.688;33.040;2023-02-13T08:23:18;102028.25;;;14.03;87.63
49377;BME280;35253;34.688;33.040;2023-02-13T08:25:43;102023.91;;;14.00;90.41
49377;BME280;35253;34.688;33.040;2023-02-13T08:28:09;102039.75;;;14.05;90.77
49377;BME280;35253;34.688;33.040;2023-02-13T08:30:34;102033.38;;;14.07;89.78
49377;BME280;35253;34.688;33.040;2023-02-13T08:33:00;102030.47;;;14.12;90.37
49377;BME280;35253;34.688;33.040;2023-02-13T08:35:25;102025.56;;;14.20;91.15
49377;BME280;35253;34.688;33.040;2023-02-13T08:37:53;102031.63;;;14.23;92.73
49377;BME280;35253;34.688;33.040;2023-02-13T08:40:19;102032.31;;;14.27;93.68
49377;BME280;35253;34.688;33.040;2023-02-13T08:42:44;102025.00;;;14.13;92.86
49377;BME280;35253;34.688;33.040;2023-02-13T08:45:10;102024.22;;;14.11;92.58
49377;BME280;35253;34.688;33.040;2023-02-13T08:47:36;102024.69;;;14.19;94.51
49377;BME280;35253;34.688;33.040;2023-02-13T08:50:02;102032.19;;;14.30;95.25
49377;BME280;35253;34.688;33.040;2023-02-13T08:52:28;102028.06;;;14.40;95.18
49377;BME280;35253;34.688;33.040;2023-02-13T08:54:53;102026.00;;;14.45;94.73
49377;BME280;35253;34.688;33.040;2023-02-13T08:57:19;102026.81;;;14.30;93.36
49377;BME280;35253;34.688;33.040;2023-02-13T08:59:44;102024.91;;;14.32;92.91
49377;BME280;35253;34.688;33.040;2023-02-13T09:02:10;102023.34;;;14.28;91.80
49377;BME280;35253;34.688;33.040;2023-02-13T09:04:36;102010.59;;;14.49;92.57
49377;BME280;35253;34.688;33.040;2023-02-13T09:07:01;102014.97;;;14.51;91.30
49377;BME280;35253;34.688;33.040;2023-02-13T09:09:27;102015.72;;;14.53;91.14
49377;BME280;35253;34.688;33.040;2023-02-13T09:11:53;102007.59;;;14.55;91.93
49377;BME280;35253;34.688;33.040;2023-02-13T09:14:24;102006.56;;;14.57;92.28
49377;BME280;35253;34.688;33.040;2023-02-13T09:16:50;102002.31;;;14.53;89.25
49377;BME280;35253;34.688;33.040;2023-02-13T09:19:15;101994.88;;;14.58;88.45
49377;BME280;35253;34.688;33.040;2023-02-13T09:21:41;101997.50;;;14.60;89.16
49377;BME280;35253;34.688;33.040;2023-02-13T09:24:09;101997.25;;;14.64;88.72
49377;BME280;35253;34.688;33.040;2023-02-13T09:26:35;101992.00;;;14.61;88.55
49377;BME280;35253;34.688;33.040;2023-02-13T09:29:00;101984.31;;;14.71;86.85
49377;BME280;35253;34.688;33.040;2023-02-13T09:31:26;101986.41;;;14.66;87.34
49377;BME280;35253;34.688;33.040;2023-02-13T09:33:51;101982.06;;;14.63;86.95
49377;BME280;35253;34.688;33.040;2023-02-13T09:36:21;101979.81;;;14.71;89.42
49377;BME280;35253;34.688;33.040;2023-02-13T09:38:52;101968.91;;;14.74;90.50
49377;BME280;35253;34.688;33.040;2023-02-13T09:41:28;101962.94;;;14.85;90.03
49377;BME280;35253;34.688;33.040;2023-02-13T09:43:58;101964.94;;;14.81;89.44
49377;BME280;35253;34.688;33.040;2023-02-13T09:46:36;101963.03;;;14.83;89.15
49377;BME280;35253;34.688;33.040;2023-02-13T09:49:15;101955.56;;;14.88;89.19
49377;BME280;35253;34.688;33.040;2023-02-13T09:51:44;101962.69;;;14.89;89.83
49377;BME280;35253;34.688;33.040;2023-02-13T09:54:14;101957.75;;;14.98;88.60
49377;BME280;35253;34.688;33.040;2023-02-13T10:01:37;101942.75;;;15.09;86.75
49377;BME280;35253;34.688;33.040;2023-02-13T10:04:14;101943.25;;;15.16;87.26
49377;BME280;35253;34.688;33.040;2023-02-13T10:06:43;101934.06;;;15.20;86.76
49377;BME280;35253;34.688;33.040;2023-02-13T10:09:26;101928.34;;;15.26;87.52
49377;BME280;35253;34.688;33.040;2023-02-13T10:12:04;101934.81;;;15.38;87.85
49377;BME280;35253;34.688;33.040;2023-02-13T10:14:38;101927.81;;;15.35;87.68
49377;BME280;35253;34.688;33.040;2023-02-13T10:19:54;101911.97;;;15.45;87.32
49377;BME280;35253;34.688;33.040;2023-02-13T10:25:03;101899.47;;;15.59;93.12
49377;BME280;35253;34.688;33.040;2023-02-13T10:27:34;101896.88;;;15.58;95.29
49377;BME280;35253;34.688;33.040;2023-02-13T10:30:04;101898.34;;;15.77;96.01
49377;BME280;35253;34.688;33.040;2023-02-13T10:35:41;101886.94;;;15.88;94.24
49377;BME280;35253;34.688;33.040;2023-02-13T10:37:59;101886.84;;;16.04;95.92
49377;BME280;35253;34.688;33.040;2023-02-13T10:40:30;101894.91;;;16.18;95.38
49377;BME280;35253;34.688;33.040;2023-02-13T10:43:06;101885.31;;;16.14;93.47
49377;BME280;35253;34.688;33.040;2023-02-13T10:45:40;101888.75;;;16.16;91.31
49377;BME280;35253;34.688;33.040;2023-02-13T10:56:13;101879.91;;;16.28;91.53
49377;BME280;35253;34.688;33.040;2023-02-13T10:58:53;101875.09;;;16.33;92.63
49377;BME280;35253;34.688;33.040;2023-02-13T11:01:31;101875.13;;;16.05;93.02
49377;BME280;35253;34.688;33.040;2023-02-13T11:06:37;101873.34;;;17.14;87.50
49377;BME280;35253;34.688;33.040;2023-02-13T11:09:06;101864.09;;;17.31;85.68
49377;BME280;35253;34.688;33.040;2023-02-13T11:11:34;101867.03;;;17.40;86.30
49377;BME280;35253;34.688;33.040;2023-02-13T11:14:07;101871.97;;;16.94;86.64
49377;BME280;35253;34.688;33.040;2023-02-13T11:17:18;101866.13;;;17.67;85.12
49377;BME280;35253;34.688;33.040;2023-02-13T11:22:04;101855.88;;;17.84;81.14
49377;BME280;35253;34.688;33.040;2023-02-13T11:24:30;101861.53;;;18.30;79.04
49377;BME280;35253;34.688;33.040;2023-02-13T11:27:00;101856.88;;;18.81;78.65
49377;BME280;35253;34.688;33.040;2023-02-13T11:29:27;101853.66;;;18.76;76.71
49377;BME280;35253;34.688;33.040;2023-02-13T11:32:01;101852.56;;;18.42;77.42
49377;BME280;35253;34.688;33.040;2023-02-13T11:34:28;101853.81;;;18.50;78.61
49377;BME280;35253;34.688;33.040;2023-02-13T11:37:14;101853.81;;;18.00;80.16
49377;BME280;35253;34.688;33.040;2023-02-13T11:39:40;101851.47;;;17.71;80.71
49377;BME280;35253;34.688;33.040;2023-02-13T11:42:11;101846.81;;;17.73;80.39
49377;BME280;35253;34.688;33.040;2023-02-13T11:44:37;101860.31;;;17.98;78.35
49377;BME280;35253;34.688;33.040;2023-02-13T11:47:04;101857.47;;;18.25;77.42
49377;BME280;35253;34.688;33.040;2023-02-13T11:49:31;101847.53;;;18.00;76.26
49377;BME280;35253;34.688;33.040;2023-02-13T11:52:01;101857.97;;;18.42;75.83
49377;BME280;35253;34.688;33.040;2023-02-13T11:57:23;101859.75;;;17.93;76.75
49377;BME280;35253;34.688;33.040;2023-02-13T11:59:48;101857.03;;;16.21;88.37
49377;BME280;35253;34.688;33.040;2023-02-13T12:02:27;101853.53;;;16.88;86.48
49377;BME280;35253;34.688;33.040;2023-02-13T12:04:54;101862.94;;;16.54;88.27
49377;BME280;35253;34.688;33.040;2023-02-13T12:07:38;101848.75;;;17.06;86.71
49377;BME280;35253;34.688;33.040;2023-02-13T12:15:56;101850.44;;;16.53;92.77
49377;BME280;35253;34.688;33.040;2023-02-13T12:23:42;101851.28;;;16.13;100.00
49377;BME280;35253;34.688;33.040;2023-02-13T12:26:22;101850.13;;;16.03;100.00
49377;BME280;35253;34.688;33.040;2023-02-13T12:31:44;101847.28;;;15.92;98.78
49377;BME280;35253;34.688;33.040;2023-02-13T12:34:22;101852.06;;;15.87;98.22
49377;BME280;35253;34.688;33.040;2023-02-13T12:39:36;101849.19;;;15.90;99.95
49377;BME280;35253;34.688;33.040;2023-02-13T12:42:28;101846.97;;;15.82;99.63
49377;BME280;35253;34.688;33.040;2023-02-13T12:58:11;101842.13;;;16.30;94.85
49377;BME280;35253;34.688;33.040;2023-02-13T13:03:28;101845.13;;;16.11;97.41
49377;BME280;35253;34.688;33.040;2023-02-13T13:08:28;101836.78;;;15.73;99.29
49377;BME280;35253;34.688;33.040;2023-02-13T13:11:04;101848.78;;;15.67;100.00
49377;BME280;35253;34.688;33.040;2023-02-13T13:21:23;101838.25;;;15.93;100.00
49377;BME280;35253;34.688;33.040;2023-02-13T13:29:01;101837.19;;;15.95;95.88
49377;BME280;35253;34.688;33.040;2023-02-13T13:31:30;101843.22;;;15.99;96.04
49377;BME280;35253;34.688;33.040;2023-02-13T13:33:59;101835.22;;;16.11;95.83
49377;BME280;35253;34.688;33.040;2023-02-13T13:39:00;101833.03;;;15.90;95.99
49377;BME280;35253;34.688;33.040;2023-02-13T13:46:49;101836.50;;;15.92;95.21
49377;BME280;35253;34.688;33.040;2023-02-13T13:51:53;101835.94;;;15.87;97.12
49377;BME280;35253;34.688;33.040;2023-02-13T13:54:20;101841.00;;;15.77;97.09
49377;BME280;35253;34.688;33.040;2023-02-13T13:59:18;101839.19;;;15.33;97.21
49377;BME280;35253;34.688;33.040;2023-02-13T14:01:44;101835.84;;;15.30;97.54
49377;BME280;35253;34.688;33.040;2023-02-13T14:11:52;101844.66;;;15.32;100.00
49377;BME280;35253;34.688;33.040;2023-02-13T14:16:53;101847.72;;;15.26;100.00
49377;BME280;35253;34.688;33.040;2023-02-13T14:19:32;101846.59;;;15.30;100.00
49377;BME280;35253;34.688;33.040;2023-02-13T14:24:53;101846.81;;;15.11;100.00
49377;BME280;35253;34.688;33.040;2023-02-13T14:27:23;101844.66;;;15.18;100.00
49377;BME280;35253;34.688;33.040;2023-02-13T14:29:49;101844.19;;;15.25;100.00
49377;BME280;35253;34.688;33.040;2023-02-13T14:32:15;101851.38;;;15.25;100.00
49377;BME280;35253;34.688;33.040;2023-02-13T14:34:42;101847.53;;;15.29;100.00
49377;BME280;35253;34.688;33.040;2023-02-13T14:37:23;101846.28;;;14.91;100.00
49377;BME280;35253;34.688;33.040;2023-02-13T14:43:08;101858.38;;;14.19;100.00
49377;BME280;35253;34.688;33.040;2023-02-13T14:45:40;101850.63;;;14.30;100.00
49377;BME280;35253;34.688;33.040;2023-02-13T14:48:12;101851.50;;;14.47;100.00
49377;BME280;35253;34.688;33.040;2023-02-13T14:51:11;101855.41;;;14.57;100.00
49377;BME280;35253;34.688;33.040;2023-02-13T14:53:32;101848.91;;;14.45;100.00
49377;BME280;35253;34.688;33.040;2023-02-13T14:56:05;101854.00;;;14.34;100.00
49377;BME280;35253;34.688;33.040;2023-02-13T14:58:33;101864.66;;;14.35;100.00
49377;BME280;35253;34.688;33.040;2023-02-13T15:01:16;101861.97;;;14.35;100.00
49377;BME280;35253;34.688;33.040;2023-02-13T15:03:46;101865.53;;;14.36;100.00
49377;BME280;35253;34.688;33.040;2023-02-13T15:08:53;101866.50;;;14.02;100.00
49377;BME280;35253;34.688;33.040;2023-02-13T15:11:36;101863.78;;;13.86;100.00
49377;BME280;35253;34.688;33.040;2023-02-13T15:16:40;101868.56;;;13.64;100.00
49377;BME280;35253;34.688;33.040;2023-02-13T15:19:10;101864.13;;;13.63;100.00
49377;BME280;35253;34.688;33.040;2023-02-13T15:21:38;101870.59;;;13.76;100.00
49377;BME280;35253;34.688;33.040;2023-02-13T15:24:12;101873.47;;;13.89;100.00
49377;BME280;35253;34.688;33.040;2023-02-13T15:26:38;101864.22;;;13.94;100.00